createdAt,value
2022-08-25T00:01:50.303Z,11.30
2022-08-25T00:04:18.970Z,9.00
2022-08-25T00:06:46.506Z,10.23
2022-08-25T00:09:14.403Z,9.20
2022-08-25T00:11:41.623Z,10.00
2022-08-25T00:14:09.895Z,8.45
2022-08-25T00:16:36.632Z,10.38
2022-08-25T00:19:05.693Z,8.65
2022-08-25T00:21:32.209Z,9.50
2022-08-25T00:23:59.479Z,8.45
2022-08-25T00:26:27.542Z,8.52
2022-08-25T00:28:54.556Z,8.30
2022-08-25T00:31:38.386Z,8.65
2022-08-25T00:34:10.787Z,9.70
2022-08-25T00:36:37.620Z,8.07
2022-08-25T00:39:04.947Z,8.75
2022-08-25T00:41:31.472Z,10.10
2022-08-25T00:43:59.498Z,8.73
2022-08-25T00:46:30.997Z,10.55
2022-08-25T00:48:59.996Z,9.00
2022-08-25T00:51:35.458Z,8.27
2022-08-25T00:54:02.734Z,7.85
2022-08-25T00:56:30.052Z,8.27
2022-08-25T00:58:56.866Z,7.85
2022-08-25T01:01:23.642Z,9.13
2022-08-25T01:03:50.878Z,7.22
2022-08-25T01:06:17.393Z,7.32
2022-08-25T01:08:43.936Z,8.40
2022-08-25T01:11:13.584Z,7.80
2022-08-25T01:13:45.285Z,7.53
2022-08-25T01:16:13.192Z,7.85
2022-08-25T01:18:43.953Z,8.00
2022-08-25T01:21:10.598Z,7.05
2022-08-25T01:23:37.175Z,8.10
2022-08-25T01:26:05.179Z,8.48
2022-08-25T01:28:31.714Z,8.80
2022-08-25T01:30:58.304Z,7.20
2022-08-25T01:33:25.016Z,8.38
2022-08-25T01:35:51.506Z,9.07
2022-08-25T01:38:18.537Z,8.52
2022-08-25T01:40:45.582Z,8.68
2022-08-25T01:43:18.286Z,11.27
2022-08-25T01:45:46.856Z,8.23
2022-08-25T01:48:13.716Z,10.35
2022-08-25T01:50:40.935Z,9.10
2022-08-25T01:53:27.882Z,9.38
2022-08-25T01:56:01.825Z,9.10
2022-08-25T01:58:30.715Z,12.00
2022-08-25T02:00:58.280Z,8.80
2022-08-25T02:03:25.714Z,9.65
2022-08-25T02:05:53.668Z,10.25
2022-08-25T02:08:20.634Z,8.80
2022-08-25T02:10:48.381Z,11.43
2022-08-25T02:13:14.885Z,9.85
2022-08-25T02:15:47.515Z,10.80
2022-08-25T02:18:14.210Z,9.07
2022-08-25T02:20:41.017Z,8.45
2022-08-25T02:23:07.572Z,8.32
2022-08-25T02:25:34.259Z,7.65
2022-08-25T02:28:00.867Z,8.75
2022-08-25T02:30:27.977Z,6.97
2022-08-25T02:32:54.575Z,6.43
2022-08-25T02:35:21.156Z,5.68
2022-08-25T02:37:47.705Z,8.02
2022-08-25T02:40:14.430Z,6.18
2022-08-25T02:42:42.691Z,6.35
2022-08-25T02:45:09.561Z,5.05
2022-08-25T02:47:47.419Z,5.60
2022-08-25T02:50:16.763Z,8.48
2022-08-25T02:52:43.245Z,5.75
2022-08-25T02:55:14.018Z,6.20
2022-08-25T02:57:42.060Z,5.93
2022-08-25T03:00:13.044Z,5.80
2022-08-25T03:02:41.456Z,6.40
2022-08-25T03:05:09.381Z,6.55
2022-08-25T03:07:36.290Z,6.57
2022-08-25T03:10:21.453Z,9.63
2022-08-25T03:12:48.022Z,8.02
2022-08-25T03:15:16.735Z,6.90
2022-08-25T03:17:48.024Z,7.68
2022-08-25T03:20:17.999Z,7.88
2022-08-25T03:22:44.558Z,6.90
2022-08-25T03:25:29.792Z,6.88
2022-08-25T03:27:56.479Z,7.72
2022-08-25T03:30:23.033Z,8.13
2022-08-25T03:32:50.106Z,10.00
2022-08-25T03:35:16.642Z,8.57
2022-08-25T03:37:43.196Z,8.85
2022-08-25T03:40:15.406Z,9.70
2022-08-25T03:42:45.161Z,7.75
2022-08-25T03:45:12.916Z,8.95
2022-08-25T03:47:40.361Z,8.27
2022-08-25T03:50:08.761Z,8.45
2022-08-25T03:52:40.340Z,9.18
2022-08-25T03:55:10.296Z,10.80
2022-08-25T03:57:36.868Z,7.50
2022-08-25T04:00:04.850Z,9.85
2022-08-25T04:02:38.459Z,9.85
2022-08-25T04:05:05.392Z,11.57
2022-08-25T04:07:31.882Z,10.18
2022-08-25T04:09:58.355Z,9.38
2022-08-25T04:12:24.939Z,9.57
2022-08-25T04:14:51.927Z,9.93
2022-08-25T04:17:18.567Z,12.02
2022-08-25T04:19:45.099Z,9.30
2022-08-25T04:22:11.596Z,10.07
2022-08-25T04:24:39.803Z,9.05
2022-08-25T04:27:06.519Z,10.02
2022-08-25T04:29:33.927Z,8.80
2022-08-25T04:32:00.755Z,9.55
2022-08-25T04:34:30.381Z,8.93
2022-08-25T04:36:59.128Z,9.98
2022-08-25T04:39:27.413Z,8.60
2022-08-25T04:41:54.180Z,8.18
2022-08-25T04:44:20.967Z,9.50
2022-08-25T04:46:47.510Z,9.98
2022-08-25T04:49:14.086Z,10.05
2022-08-25T04:51:41.318Z,9.13
2022-08-25T04:54:12.703Z,9.57
2022-08-25T04:56:41.038Z,8.60
2022-08-25T04:59:09.404Z,7.82
2022-08-25T05:01:36.246Z,10.57
2022-08-25T05:04:04.805Z,7.93
2022-08-25T05:06:31.705Z,9.15
2022-08-25T05:08:59.019Z,10.13
2022-08-25T05:11:26.016Z,12.32
2022-08-25T05:13:53.948Z,8.60
2022-08-25T05:16:22.361Z,10.45
2022-08-25T05:18:50.292Z,10.52
2022-08-25T05:21:19.114Z,8.50
2022-08-25T05:23:47.039Z,8.57
2022-08-25T05:26:19.929Z,8.68
2022-08-25T05:28:48.660Z,9.50
2022-08-25T05:31:15.571Z,10.27
2022-08-25T05:33:42.683Z,10.55
2022-08-25T05:36:10.019Z,10.45
2022-08-25T05:38:38.194Z,9.30
2022-08-25T05:41:06.250Z,9.30
2022-08-25T05:43:33.049Z,13.18
2022-08-25T05:45:59.790Z,13.50
2022-08-25T05:48:27.248Z,10.68
2022-08-25T05:50:58.893Z,11.40
2022-08-25T05:53:26.077Z,9.77
2022-08-25T05:55:53.274Z,12.32
2022-08-25T05:58:20.262Z,11.20
2022-08-25T06:00:46.893Z,12.30
2022-08-25T06:03:13.488Z,10.10
2022-08-25T06:05:41.044Z,10.95
2022-08-25T06:08:07.825Z,13.80
2022-08-25T06:10:34.737Z,10.05
2022-08-25T06:13:01.378Z,11.13
2022-08-25T06:15:28.335Z,10.88
2022-08-25T06:18:00.693Z,10.15
2022-08-25T06:20:29.311Z,10.95
2022-08-25T06:22:56.123Z,10.52
2022-08-25T06:25:23.270Z,9.93
2022-08-25T06:27:49.846Z,11.55
2022-08-25T06:30:21.296Z,9.50
2022-08-25T06:32:50.933Z,12.07
2022-08-25T06:35:18.827Z,8.32
2022-08-25T06:37:45.890Z,13.05
2022-08-25T06:40:12.648Z,7.68
2022-08-25T06:42:39.765Z,8.25
2022-08-25T06:45:07.970Z,11.00
2022-08-25T06:47:34.603Z,7.35
2022-08-25T06:50:01.100Z,5.78
2022-08-25T06:52:27.531Z,8.38
2022-08-25T06:54:55.720Z,6.95
2022-08-25T06:57:22.230Z,10.02
2022-08-25T06:59:49.165Z,6.10
2022-08-25T07:02:21.896Z,5.55
2022-08-25T07:04:48.829Z,6.25
2022-08-25T07:07:15.294Z,5.25
2022-08-25T07:09:41.760Z,8.52
2022-08-25T07:12:08.305Z,7.60
2022-08-25T07:14:36.387Z,6.55
2022-08-25T07:17:03.097Z,6.35
2022-08-25T07:19:37.043Z,4.68
2022-08-25T07:22:09.534Z,7.97
2022-08-25T07:24:36.603Z,7.55
2022-08-25T07:27:03.148Z,8.23
2022-08-25T07:29:33.087Z,5.97
2022-08-25T07:32:00.740Z,6.90
2022-08-25T07:34:52.380Z,5.32
2022-08-25T07:37:47.244Z,5.25
2022-08-25T07:40:07.152Z,7.70
2022-08-25T07:42:33.998Z,5.55
2022-08-25T07:45:00.437Z,4.97
2022-08-25T07:47:26.934Z,7.45
2022-08-25T07:49:53.374Z,5.07
2022-08-25T07:52:21.209Z,7.72
2022-08-25T07:54:47.622Z,5.05
2022-08-25T07:57:14.173Z,5.97
2022-08-25T07:59:41.666Z,5.05
2022-08-25T08:02:18.428Z,5.80
2022-08-25T08:04:48.298Z,8.77
2022-08-25T08:07:41.122Z,8.38
2022-08-25T08:10:48.181Z,5.17
2022-08-25T08:12:56.958Z,7.57
2022-08-25T08:15:23.532Z,8.05
2022-08-25T08:17:49.976Z,7.90
2022-08-25T08:20:17.399Z,5.50
2022-08-25T08:22:49.671Z,7.60
2022-08-25T08:25:21.151Z,9.82
2022-08-25T08:28:13.552Z,7.40
2022-08-25T08:33:41.033Z,6.67
2022-08-25T08:36:09.707Z,5.60
2022-08-25T08:38:36.702Z,4.65
2022-08-25T08:41:23.053Z,7.05
2022-08-25T08:43:53.120Z,9.23
2022-08-25T08:46:22.935Z,5.35
2022-08-25T08:49:01.879Z,13.18
2022-08-25T08:51:33.439Z,6.60
2022-08-25T08:54:18.814Z,6.20
2022-08-25T08:56:48.638Z,5.97
2022-08-25T08:59:21.436Z,5.65
2022-08-25T09:01:59.336Z,6.22
2022-08-25T09:04:35.074Z,6.55
2022-08-25T09:07:04.110Z,7.15
2022-08-25T09:09:35.577Z,7.72
2022-08-25T09:12:08.680Z,8.43
2022-08-25T09:14:54.334Z,5.53
2022-08-25T09:17:23.953Z,5.32
2022-08-25T09:20:18.204Z,6.53
2022-08-25T09:22:49.128Z,5.20
2022-08-25T09:25:53.674Z,4.75
2022-08-25T09:28:27.619Z,3.78
2022-08-25T09:31:02.680Z,4.30
2022-08-25T09:33:31.276Z,5.85
2022-08-25T09:36:05.513Z,5.97
2022-08-25T09:38:33.039Z,6.63
2022-08-25T09:41:01.027Z,7.22
2022-08-25T09:43:28.209Z,5.63
2022-08-25T09:46:13.602Z,7.15
2022-08-25T09:48:56.088Z,8.80
2022-08-25T09:51:42.917Z,10.10
2022-08-25T09:54:12.791Z,3.55
2022-08-25T09:56:55.229Z,3.65
2022-08-25T09:59:34.528Z,4.70
2022-08-25T10:02:15.070Z,5.03
2022-08-25T10:04:42.452Z,5.45
2022-08-25T10:07:25.455Z,6.65
2022-08-25T10:09:59.610Z,6.50
2022-08-25T10:12:42.669Z,5.03
2022-08-25T10:15:29.932Z,4.28
2022-08-25T10:18:17.491Z,5.28
2022-08-25T10:20:44.783Z,9.55
2022-08-25T10:23:13.305Z,6.22
2022-08-25T10:25:59.201Z,4.13
2022-08-25T10:28:33.732Z,7.72
2022-08-25T10:31:13.250Z,4.10
2022-08-25T10:33:45.924Z,10.98
2022-08-25T10:36:20.483Z,5.10
2022-08-25T10:38:52.452Z,4.90
2022-08-25T10:41:37.612Z,5.47
2022-08-25T10:44:33.293Z,7.43
2022-08-25T10:47:14.312Z,7.32
2022-08-25T10:49:45.014Z,5.60
2022-08-25T10:52:23.154Z,6.53
2022-08-25T10:54:49.570Z,6.40
2022-08-25T10:57:23.691Z,5.20
2022-08-25T10:59:50.125Z,4.85
2022-08-25T11:02:35.387Z,5.07
2022-08-25T11:05:28.207Z,4.15
2022-08-25T11:08:18.732Z,2.67
2022-08-25T11:10:52.221Z,4.95
2022-08-25T11:13:24.908Z,4.28
2022-08-25T11:16:15.423Z,5.90
2022-08-25T11:19:00.437Z,4.97
2022-08-25T11:21:37.072Z,3.67
2022-08-25T11:24:10.598Z,2.00
2022-08-25T11:26:37.915Z,3.55
2022-08-25T11:29:16.504Z,4.82
2022-08-25T11:31:52.764Z,4.30
2022-08-25T11:34:20.391Z,3.80
2022-08-25T11:36:57.578Z,5.80
2022-08-25T11:39:24.328Z,3.85
2022-08-25T11:41:51.135Z,4.10
2022-08-25T11:44:35.961Z,5.10
2022-08-25T11:47:21.273Z,3.73
2022-08-25T11:49:52.735Z,3.88
2022-08-25T11:52:31.350Z,3.70
2022-08-25T11:55:07.017Z,4.25
2022-08-25T11:57:36.125Z,5.00
2022-08-25T12:00:02.873Z,4.65
2022-08-25T12:02:32.907Z,3.45
2022-08-25T12:05:00.125Z,7.00
2022-08-25T12:07:29.026Z,4.15
2022-08-25T12:09:56.991Z,5.35
2022-08-25T12:12:42.403Z,6.28
2022-08-25T12:15:15.137Z,8.40
2022-08-25T12:17:45.087Z,4.38
2022-08-25T12:20:11.632Z,3.97
2022-08-25T12:22:39.727Z,3.13
2022-08-25T12:25:13.956Z,3.75
2022-08-25T12:28:01.554Z,5.07
2022-08-25T12:30:32.511Z,4.00
2022-08-25T12:33:06.264Z,6.07
2022-08-25T12:35:48.491Z,4.05
2022-08-25T12:38:16.955Z,5.32
2022-08-25T12:40:43.948Z,8.45
2022-08-25T12:43:11.863Z,3.97
2022-08-25T12:45:40.272Z,4.97
2022-08-25T12:48:25.509Z,4.38
2022-08-25T12:51:06.337Z,6.10
2022-08-25T12:53:38.581Z,3.97
2022-08-25T12:56:23.819Z,3.92
2022-08-25T12:59:02.233Z,3.85
2022-08-25T13:01:47.805Z,4.00
2022-08-25T13:04:24.867Z,4.60
2022-08-25T13:06:51.502Z,7.25
2022-08-25T13:09:36.896Z,5.70
2022-08-25T13:12:07.749Z,4.00
2022-08-25T13:14:38.114Z,4.57
2022-08-25T13:17:05.504Z,6.60
2022-08-25T13:19:35.132Z,5.05
2022-08-25T13:22:03.713Z,4.28
2022-08-25T13:24:40.649Z,5.07
2022-08-25T13:27:10.653Z,7.97
2022-08-25T13:29:49.355Z,5.30
2022-08-25T13:32:24.574Z,5.55
2022-08-25T13:35:10.723Z,3.05
2022-08-25T13:37:40.741Z,5.75
2022-08-25T13:40:24.739Z,3.92
2022-08-25T13:43:03.504Z,5.38
2022-08-25T13:45:31.974Z,4.00
2022-08-25T13:47:58.804Z,3.70
2022-08-25T13:50:31.667Z,5.97
2022-08-25T13:53:04.113Z,6.35
2022-08-25T13:56:00.538Z,4.60
2022-08-25T13:58:44.699Z,4.43
2022-08-25T14:01:47.329Z,5.32
2022-08-25T14:04:27.901Z,3.78
2022-08-25T14:07:05.491Z,5.10
2022-08-25T14:09:38.572Z,3.90
2022-08-25T14:12:05.074Z,6.50
2022-08-25T14:14:33.798Z,6.78
2022-08-25T14:17:04.984Z,5.68
2022-08-25T14:19:47.601Z,4.47
2022-08-25T14:22:14.686Z,5.25
2022-08-25T14:24:41.161Z,4.95
2022-08-25T14:27:07.613Z,5.93
2022-08-25T14:29:41.309Z,5.57
2022-08-25T14:32:09.946Z,7.85
2022-08-25T14:34:37.444Z,6.15
2022-08-25T14:37:12.410Z,4.68
2022-08-25T14:39:42.189Z,7.20
2022-08-25T14:42:25.357Z,5.97
2022-08-25T14:44:54.728Z,6.32
2022-08-25T14:47:22.686Z,7.72
2022-08-25T14:49:50.588Z,5.30
2022-08-25T14:52:22.449Z,5.63
2022-08-25T14:54:49.428Z,6.32
2022-08-25T14:57:16.132Z,3.67
2022-08-25T14:59:43.495Z,3.65
2022-08-25T15:02:13.065Z,5.53
2022-08-25T15:04:39.774Z,5.55
2022-08-25T15:07:34.263Z,3.78
2022-08-25T15:10:00.784Z,4.63
2022-08-25T15:12:46.526Z,4.22
2022-08-25T15:15:14.322Z,9.23
2022-08-25T15:17:42.052Z,4.55
2022-08-25T15:20:11.770Z,5.43
2022-08-25T15:22:38.308Z,7.68
2022-08-25T15:25:05.063Z,5.90
2022-08-25T15:27:31.786Z,3.40
2022-08-25T15:29:58.290Z,5.85
2022-08-25T15:32:24.970Z,3.58
2022-08-25T15:34:54.486Z,5.90
2022-08-25T15:37:20.947Z,4.70
2022-08-25T15:39:48.931Z,4.40
2022-08-25T15:42:16.411Z,3.00
2022-08-25T15:44:43.526Z,4.78
2022-08-25T15:47:20.497Z,3.80
2022-08-25T15:49:47.299Z,5.03
2022-08-25T15:52:13.957Z,3.72
2022-08-25T15:54:40.873Z,5.82
2022-08-25T15:57:13.960Z,3.10
2022-08-25T15:59:52.297Z,4.45
2022-08-25T16:02:19.970Z,5.78
2022-08-25T16:04:46.511Z,4.80
2022-08-25T16:07:13.218Z,3.20
2022-08-25T16:09:40.576Z,4.78
2022-08-25T16:12:08.474Z,4.10
2022-08-25T16:14:35.363Z,6.35
2022-08-25T16:17:01.831Z,3.65
2022-08-25T16:19:28.916Z,5.70
2022-08-25T16:21:55.590Z,5.82
2022-08-25T16:24:22.070Z,6.85
2022-08-25T16:26:50.137Z,6.25
2022-08-25T16:29:18.596Z,6.40
2022-08-25T16:31:53.064Z,6.70
2022-08-25T16:34:20.316Z,9.05
2022-08-25T16:36:46.865Z,4.57
2022-08-25T16:39:13.345Z,5.13
2022-08-25T16:41:39.955Z,3.40
2022-08-25T16:44:11.245Z,2.95
2022-08-25T16:46:38.521Z,4.45
2022-08-25T16:49:08.097Z,5.35
2022-08-25T16:51:36.026Z,4.18
2022-08-25T16:54:22.180Z,5.80
2022-08-25T16:56:54.840Z,3.47
2022-08-25T16:59:22.089Z,4.15
2022-08-25T17:01:50.776Z,3.13
2022-08-25T17:04:17.452Z,4.15
2022-08-25T17:06:49.455Z,5.53
2022-08-25T17:09:23.975Z,3.22
2022-08-25T17:11:52.531Z,5.38
2022-08-25T17:14:24.498Z,5.70
2022-08-25T17:16:54.561Z,3.58
2022-08-25T17:19:21.264Z,5.75
2022-08-25T17:21:50.628Z,3.70
2022-08-25T17:24:17.185Z,4.05
2022-08-25T17:26:46.103Z,5.97
2022-08-25T17:29:19.993Z,6.60
2022-08-25T17:31:48.364Z,4.75
2022-08-25T17:34:16.490Z,5.80
2022-08-25T17:36:43.791Z,6.40
2022-08-25T17:39:11.506Z,5.38
2022-08-25T17:41:38.172Z,7.05
2022-08-25T17:44:07.049Z,10.25
2022-08-25T17:46:33.557Z,7.85
2022-08-25T17:48:59.986Z,4.68
2022-08-25T17:51:26.383Z,5.10
2022-08-25T17:53:56.610Z,7.18
2022-08-25T17:56:24.266Z,7.80
2022-08-25T17:58:55.217Z,4.93
2022-08-25T18:01:25.773Z,7.43
2022-08-25T18:03:53.781Z,11.60
2022-08-25T18:06:20.994Z,7.53
2022-08-25T18:08:51.798Z,8.02
2022-08-25T18:11:20.786Z,7.03
2022-08-25T18:13:47.427Z,6.07
2022-08-25T18:16:16.937Z,5.95
2022-08-25T18:18:44.413Z,9.77
2022-08-25T18:21:14.932Z,6.63
2022-08-25T18:23:42.494Z,7.60
2022-08-25T18:26:10.625Z,6.13
2022-08-25T18:28:44.004Z,7.07
2022-08-25T18:31:12.092Z,7.13
2022-08-25T18:33:41.981Z,5.57
2022-08-25T18:36:09.124Z,7.20
2022-08-25T18:38:57.882Z,7.65
2022-08-25T18:41:25.597Z,7.93
2022-08-25T18:43:52.868Z,7.75
2022-08-25T18:46:19.480Z,7.45
2022-08-25T18:48:49.301Z,8.80
2022-08-25T18:51:19.545Z,5.97
2022-08-25T18:53:51.197Z,5.95
2022-08-25T18:56:21.732Z,6.80
2022-08-25T18:58:48.344Z,8.80
2022-08-25T19:01:16.129Z,6.88
2022-08-25T19:03:44.319Z,8.30
2022-08-25T19:06:11.016Z,8.48
2022-08-25T19:08:42.152Z,11.52
2022-08-25T19:11:09.666Z,9.30
2022-08-25T19:13:36.199Z,10.45
2022-08-25T19:16:12.541Z,10.32
2022-08-25T19:18:41.510Z,10.93
2022-08-25T19:21:08.577Z,11.02
2022-08-25T19:23:38.073Z,10.02
2022-08-25T19:26:16.859Z,13.32
2022-08-25T19:28:45.909Z,10.43
2022-08-25T19:31:16.025Z,13.43
2022-08-25T19:33:45.941Z,11.68
2022-08-25T19:36:13.345Z,13.15
2022-08-25T19:38:40.745Z,13.00
2022-08-25T19:41:13.822Z,14.15
2022-08-25T19:43:55.509Z,16.98
2022-08-25T19:46:24.316Z,14.95
2022-08-25T19:48:50.882Z,16.05
2022-08-25T19:51:19.415Z,15.55
2022-08-25T19:53:54.316Z,14.73
2022-08-25T19:56:21.484Z,16.70
2022-08-25T19:58:47.931Z,17.98
2022-08-25T20:01:18.207Z,21.77
2022-08-25T20:03:47.860Z,23.35
2022-08-25T20:06:15.883Z,22.60
2022-08-25T20:08:42.909Z,21.60
2022-08-25T20:11:10.780Z,20.30
2022-08-25T20:13:37.325Z,20.75
2022-08-25T20:16:04.188Z,19.00
2022-08-25T20:18:32.336Z,22.60
2022-08-25T20:20:58.933Z,23.38
2022-08-25T20:23:44.146Z,24.50
2022-08-25T20:26:10.673Z,26.20
2022-08-25T20:28:37.101Z,28.10
2022-08-25T20:31:04.077Z,26.30
2022-08-25T20:33:30.689Z,30.15
2022-08-25T20:35:57.188Z,26.40
2022-08-25T20:38:25.707Z,23.35
2022-08-25T20:40:52.639Z,23.27
2022-08-25T20:43:20.769Z,21.02
2022-08-25T20:45:47.760Z,20.63
2022-08-25T20:48:14.238Z,18.50
2022-08-25T20:50:41.940Z,19.33
2022-08-25T20:53:10.103Z,20.10
2022-08-25T20:55:42.487Z,17.77
2022-08-25T20:58:10.164Z,18.75
2022-08-25T21:00:36.597Z,17.42
2022-08-25T21:03:03.113Z,20.23
2022-08-25T21:05:29.551Z,18.92
2022-08-25T21:07:55.997Z,19.27
2022-08-25T21:10:23.323Z,16.80
2022-08-25T21:12:53.275Z,16.13
2022-08-25T21:15:20.175Z,16.05
2022-08-25T21:17:50.737Z,18.60
2022-08-25T21:20:17.431Z,16.00
2022-08-25T21:22:43.955Z,16.50
2022-08-25T21:25:10.651Z,17.02
2022-08-25T21:27:37.156Z,17.90
2022-08-25T21:30:06.244Z,22.52
2022-08-25T21:32:34.219Z,23.63
2022-08-25T21:35:00.731Z,20.15
2022-08-25T21:37:27.802Z,17.05
2022-08-25T21:39:54.670Z,20.63
2022-08-25T21:42:22.329Z,18.10
2022-08-25T21:44:50.447Z,20.05
2022-08-25T21:47:20.921Z,18.23
2022-08-25T21:49:48.222Z,21.95
2022-08-25T21:52:15.461Z,16.40
2022-08-25T21:54:41.954Z,16.33
2022-08-25T21:57:08.448Z,18.40
2022-08-25T21:59:36.227Z,14.57
2022-08-25T22:02:04.346Z,17.60
2022-08-25T22:04:31.485Z,16.15
2022-08-25T22:06:58.401Z,16.00
2022-08-25T22:09:26.168Z,16.30
2022-08-25T22:11:55.591Z,19.67
2022-08-25T22:14:23.411Z,15.35
2022-08-25T22:16:51.266Z,13.95
2022-08-25T22:19:17.890Z,13.77
2022-08-25T22:21:44.423Z,12.82
2022-08-25T22:24:11.182Z,12.60
2022-08-25T22:26:37.841Z,15.50
2022-08-25T22:29:04.924Z,14.90
2022-08-25T22:31:33.330Z,14.05
2022-08-25T22:34:00.452Z,16.42
2022-08-25T22:36:31.136Z,11.50
2022-08-25T22:38:58.039Z,12.95
2022-08-25T22:41:25.374Z,14.00
2022-08-25T22:43:53.011Z,12.05
2022-08-25T22:46:20.873Z,10.70
2022-08-25T22:48:47.459Z,13.20
2022-08-25T22:51:25.220Z,13.95
2022-08-25T22:53:51.896Z,10.52
2022-08-25T22:56:31.740Z,11.13
2022-08-25T22:58:59.290Z,11.10
2022-08-25T23:01:25.993Z,11.57
2022-08-25T23:03:52.512Z,14.73
2022-08-25T23:06:24.982Z,15.05
2022-08-25T23:08:52.592Z,9.98
2022-08-25T23:11:21.329Z,11.13
2022-08-25T23:13:48.100Z,10.35
2022-08-25T23:16:15.563Z,12.30
2022-08-25T23:18:43.970Z,7.65
2022-08-25T23:21:38.045Z,9.68
2022-08-25T23:24:08.405Z,10.52
2022-08-25T23:26:34.865Z,8.90
2022-08-25T23:29:01.289Z,10.95
2022-08-25T23:31:30.161Z,8.55
2022-08-25T23:33:57.640Z,8.18
2022-08-25T23:36:24.497Z,9.02
2022-08-25T23:38:52.079Z,10.40
2022-08-25T23:41:21.748Z,10.13
2022-08-25T23:43:49.691Z,7.63
2022-08-25T23:46:18.069Z,8.38
2022-08-25T23:48:44.578Z,6.60
2022-08-25T23:51:11.207Z,4.45
2022-08-25T23:53:37.867Z,9.82
2022-08-25T23:56:05.565Z,7.72
2022-08-25T23:58:32.699Z,11.20
